Terminal Aerodrome Forecast
Issued by NWS Flagstaff, AZ

Home | Current Version | Previous Version | Text Only | Print | Product List | Glossary On
Versions: 1 2 3 4 5 6 7 8 9 10 11 12 13 14
000
FTUS45 KFGZ 272328
TAFINW
TAF
KINW 272328Z 2800/2824 23015G25KT P6SM FEW120
     FM280200 24008KT P6SM FEW140
     FM280700 VRB06KT P6SM SKC
     FM282000 28008KT P6SM FEW120=

USA.gov is the U.S. government's official web portal to all federal, state and local government web resources and services.